sensor_id;sensor_type;location;lat;lon;timestamp;P1;durP1;ratioP1;P2;durP2;ratioP2
70183;SDS011;57554;51.546;6.776;2022-07-29T00:00:39;6.50;;;1.35;;
70183;SDS011;57554;51.546;6.776;2022-07-29T00:03:05;5.45;;;1.30;;
70183;SDS011;57554;51.546;6.776;2022-07-29T00:05:30;6.65;;;1.20;;
70183;SDS011;57554;51.546;6.776;2022-07-29T00:07:56;5.90;;;1.20;;
70183;SDS011;57554;51.546;6.776;2022-07-29T00:10:22;3.90;;;1.17;;
70183;SDS011;57554;51.546;6.776;2022-07-29T00:12:47;4.13;;;1.30;;
70183;SDS011;57554;51.546;6.776;2022-07-29T00:15:13;5.63;;;1.10;;
70183;SDS011;57554;51.546;6.776;2022-07-29T00:17:39;5.35;;;1.10;;
70183;SDS011;57554;51.546;6.776;2022-07-29T00:20:05;11.65;;;1.27;;
70183;SDS011;57554;51.546;6.776;2022-07-29T00:22:31;3.97;;;1.10;;
70183;SDS011;57554;51.546;6.776;2022-07-29T00:24:56;6.70;;;1.20;;
70183;SDS011;57554;51.546;6.776;2022-07-29T00:27:22;5.88;;;1.13;;
70183;SDS011;57554;51.546;6.776;2022-07-29T00:29:48;6.50;;;1.40;;
70183;SDS011;57554;51.546;6.776;2022-07-29T00:32:13;4.72;;;1.17;;
70183;SDS011;57554;51.546;6.776;2022-07-29T00:34:39;3.97;;;1.00;;
70183;SDS011;57554;51.546;6.776;2022-07-29T00:37:23;6.47;;;1.30;;
70183;SDS011;57554;51.546;6.776;2022-07-29T00:39:49;3.88;;;1.08;;
70183;SDS011;57554;51.546;6.776;2022-07-29T00:42:15;8.35;;;1.52;;
70183;SDS011;57554;51.546;6.776;2022-07-29T00:44:41;5.97;;;1.30;;
70183;SDS011;57554;51.546;6.776;2022-07-29T00:47:08;9.13;;;1.50;;
70183;SDS011;57554;51.546;6.776;2022-07-29T00:49:34;4.35;;;1.20;;
70183;SDS011;57554;51.546;6.776;2022-07-29T00:52:01;5.68;;;0.95;;
70183;SDS011;57554;51.546;6.776;2022-07-29T00:54:28;11.25;;;1.80;;
70183;SDS011;57554;51.546;6.776;2022-07-29T00:56:54;6.40;;;1.23;;
70183;SDS011;57554;51.546;6.776;2022-07-29T00:59:22;5.45;;;1.60;;
70183;SDS011;57554;51.546;6.776;2022-07-29T01:01:48;4.85;;;1.15;;
70183;SDS011;57554;51.546;6.776;2022-07-29T01:04:14;5.97;;;1.15;;
70183;SDS011;57554;51.546;6.776;2022-07-29T01:06:39;5.53;;;1.25;;
70183;SDS011;57554;51.546;6.776;2022-07-29T01:09:05;5.47;;;1.45;;
70183;SDS011;57554;51.546;6.776;2022-07-29T01:11:32;5.97;;;1.35;;
70183;SDS011;57554;51.546;6.776;2022-07-29T01:13:58;5.15;;;1.30;;
70183;SDS011;57554;51.546;6.776;2022-07-29T01:16:27;5.63;;;1.10;;
70183;SDS011;57554;51.546;6.776;2022-07-29T01:18:59;3.42;;;1.10;;
70183;SDS011;57554;51.546;6.776;2022-07-29T01:27:04;10.02;;;1.38;;
70183;SDS011;57554;51.546;6.776;2022-07-29T01:29:44;5.50;;;1.10;;
70183;SDS011;57554;51.546;6.776;2022-07-29T01:32:14;5.10;;;1.50;;
70183;SDS011;57554;51.546;6.776;2022-07-29T01:34:50;4.47;;;1.05;;
70183;SDS011;57554;51.546;6.776;2022-07-29T01:37:28;6.90;;;1.52;;
70183;SDS011;57554;51.546;6.776;2022-07-29T01:40:24;5.22;;;0.90;;
70183;SDS011;57554;51.546;6.776;2022-07-29T01:42:54;5.43;;;1.33;;
70183;SDS011;57554;51.546;6.776;2022-07-29T01:45:23;4.45;;;1.00;;
70183;SDS011;57554;51.546;6.776;2022-07-29T01:50:31;7.50;;;1.10;;
70183;SDS011;57554;51.546;6.776;2022-07-29T01:53:00;6.40;;;1.10;;
70183;SDS011;57554;51.546;6.776;2022-07-29T01:55:31;4.25;;;0.95;;
70183;SDS011;57554;51.546;6.776;2022-07-29T01:58:00;11.38;;;1.60;;
70183;SDS011;57554;51.546;6.776;2022-07-29T02:00:27;5.68;;;1.25;;
70183;SDS011;57554;51.546;6.776;2022-07-29T02:02:56;4.25;;;1.13;;
70183;SDS011;57554;51.546;6.776;2022-07-29T02:05:25;4.32;;;1.10;;
70183;SDS011;57554;51.546;6.776;2022-07-29T02:07:53;6.38;;;1.33;;
70183;SDS011;57554;51.546;6.776;2022-07-29T02:10:24;4.22;;;1.17;;
70183;SDS011;57554;51.546;6.776;2022-07-29T02:12:52;9.98;;;1.50;;
70183;SDS011;57554;51.546;6.776;2022-07-29T02:15:20;4.22;;;1.23;;
70183;SDS011;57554;51.546;6.776;2022-07-29T02:17:49;3.97;;;1.00;;
70183;SDS011;57554;51.546;6.776;2022-07-29T02:20:25;7.10;;;1.17;;
70183;SDS011;57554;51.546;6.776;2022-07-29T02:22:52;4.65;;;1.25;;
70183;SDS011;57554;51.546;6.776;2022-07-29T02:25:20;5.40;;;1.38;;
70183;SDS011;57554;51.546;6.776;2022-07-29T02:27:47;7.32;;;1.30;;
70183;SDS011;57554;51.546;6.776;2022-07-29T02:30:15;4.75;;;0.90;;
70183;SDS011;57554;51.546;6.776;2022-07-29T02:32:42;4.70;;;1.00;;
70183;SDS011;57554;51.546;6.776;2022-07-29T02:35:10;5.45;;;1.20;;
70183;SDS011;57554;51.546;6.776;2022-07-29T02:37:39;5.85;;;1.25;;
70183;SDS011;57554;51.546;6.776;2022-07-29T02:40:06;4.53;;;1.40;;
70183;SDS011;57554;51.546;6.776;2022-07-29T02:42:35;7.60;;;1.33;;
70183;SDS011;57554;51.546;6.776;2022-07-29T02:45:04;6.13;;;1.30;;
70183;SDS011;57554;51.546;6.776;2022-07-29T02:47:32;7.47;;;1.40;;
70183;SDS011;57554;51.546;6.776;2022-07-29T02:52:44;6.20;;;1.17;;
70183;SDS011;57554;51.546;6.776;2022-07-29T02:55:19;4.25;;;1.20;;
70183;SDS011;57554;51.546;6.776;2022-07-29T03:00:47;5.30;;;1.23;;
70183;SDS011;57554;51.546;6.776;2022-07-29T03:03:17;11.00;;;1.63;;
70183;SDS011;57554;51.546;6.776;2022-07-29T03:05:43;4.75;;;1.33;;
70183;SDS011;57554;51.546;6.776;2022-07-29T03:08:10;4.90;;;1.25;;
70183;SDS011;57554;51.546;6.776;2022-07-29T03:10:39;6.43;;;1.45;;
70183;SDS011;57554;51.546;6.776;2022-07-29T03:13:07;5.20;;;1.23;;
70183;SDS011;57554;51.546;6.776;2022-07-29T03:15:34;4.30;;;1.30;;
70183;SDS011;57554;51.546;6.776;2022-07-29T03:18:02;6.18;;;1.20;;
70183;SDS011;57554;51.546;6.776;2022-07-29T03:20:28;7.40;;;1.52;;
70183;SDS011;57554;51.546;6.776;2022-07-29T03:22:54;5.82;;;1.48;;
70183;SDS011;57554;51.546;6.776;2022-07-29T03:25:20;5.85;;;1.40;;
70183;SDS011;57554;51.546;6.776;2022-07-29T03:27:46;6.53;;;1.33;;
70183;SDS011;57554;51.546;6.776;2022-07-29T03:30:12;8.20;;;1.63;;
70183;SDS011;57554;51.546;6.776;2022-07-29T03:32:39;4.28;;;1.35;;
70183;SDS011;57554;51.546;6.776;2022-07-29T03:35:05;4.75;;;1.35;;
70183;SDS011;57554;51.546;6.776;2022-07-29T03:37:32;6.43;;;1.40;;
70183;SDS011;57554;51.546;6.776;2022-07-29T03:39:58;5.68;;;1.35;;
70183;SDS011;57554;51.546;6.776;2022-07-29T03:42:27;5.30;;;1.27;;
70183;SDS011;57554;51.546;6.776;2022-07-29T03:44:56;4.90;;;1.35;;
70183;SDS011;57554;51.546;6.776;2022-07-29T03:47:25;6.40;;;1.50;;
70183;SDS011;57554;51.546;6.776;2022-07-29T03:49:54;5.57;;;1.40;;
70183;SDS011;57554;51.546;6.776;2022-07-29T03:52:25;6.25;;;1.27;;
70183;SDS011;57554;51.546;6.776;2022-07-29T03:54:51;5.40;;;1.40;;
70183;SDS011;57554;51.546;6.776;2022-07-29T03:57:18;5.80;;;1.50;;
70183;SDS011;57554;51.546;6.776;2022-07-29T03:59:48;8.70;;;1.70;;
70183;SDS011;57554;51.546;6.776;2022-07-29T04:02:16;4.40;;;1.48;;
70183;SDS011;57554;51.546;6.776;2022-07-29T04:04:42;6.53;;;1.58;;
70183;SDS011;57554;51.546;6.776;2022-07-29T04:07:11;4.95;;;1.63;;
70183;SDS011;57554;51.546;6.776;2022-07-29T04:09:37;6.07;;;1.50;;
70183;SDS011;57554;51.546;6.776;2022-07-29T04:12:03;7.80;;;1.70;;
70183;SDS011;57554;51.546;6.776;2022-07-29T04:14:29;6.35;;;1.70;;
70183;SDS011;57554;51.546;6.776;2022-07-29T04:16:58;16.77;;;2.58;;
70183;SDS011;57554;51.546;6.776;2022-07-29T04:19:25;10.63;;;2.10;;
70183;SDS011;57554;51.546;6.776;2022-07-29T04:21:50;6.82;;;1.90;;
70183;SDS011;57554;51.546;6.776;2022-07-29T04:24:16;6.95;;;1.70;;
70183;SDS011;57554;51.546;6.776;2022-07-29T04:26:42;11.95;;;2.75;;
70183;SDS011;57554;51.546;6.776;2022-07-29T04:29:07;12.57;;;3.05;;
70183;SDS011;57554;51.546;6.776;2022-07-29T04:31:33;12.43;;;3.35;;
70183;SDS011;57554;51.546;6.776;2022-07-29T04:33:58;9.00;;;3.33;;
70183;SDS011;57554;51.546;6.776;2022-07-29T04:36:24;10.60;;;2.95;;
70183;SDS011;57554;51.546;6.776;2022-07-29T04:38:50;11.57;;;2.90;;
70183;SDS011;57554;51.546;6.776;2022-07-29T04:41:15;8.30;;;2.50;;
70183;SDS011;57554;51.546;6.776;2022-07-29T04:43:41;8.55;;;2.75;;
70183;SDS011;57554;51.546;6.776;2022-07-29T04:46:06;6.93;;;2.25;;
70183;SDS011;57554;51.546;6.776;2022-07-29T04:48:32;6.60;;;2.80;;
70183;SDS011;57554;51.546;6.776;2022-07-29T04:50:58;5.53;;;2.15;;
70183;SDS011;57554;51.546;6.776;2022-07-29T04:53:24;10.35;;;2.80;;
70183;SDS011;57554;51.546;6.776;2022-07-29T04:55:50;9.50;;;2.38;;
70183;SDS011;57554;51.546;6.776;2022-07-29T04:58:15;6.20;;;2.15;;
70183;SDS011;57554;51.546;6.776;2022-07-29T05:00:41;6.00;;;2.33;;
70183;SDS011;57554;51.546;6.776;2022-07-29T05:03:07;4.57;;;2.03;;
70183;SDS011;57554;51.546;6.776;2022-07-29T05:05:32;7.43;;;2.40;;
70183;SDS011;57554;51.546;6.776;2022-07-29T05:07:58;10.50;;;2.90;;
70183;SDS011;57554;51.546;6.776;2022-07-29T05:10:24;6.75;;;2.40;;
70183;SDS011;57554;51.546;6.776;2022-07-29T05:12:50;7.70;;;2.63;;
70183;SDS011;57554;51.546;6.776;2022-07-29T05:15:15;8.48;;;2.70;;
70183;SDS011;57554;51.546;6.776;2022-07-29T05:17:42;6.00;;;2.55;;
70183;SDS011;57554;51.546;6.776;2022-07-29T05:20:08;8.13;;;2.60;;
70183;SDS011;57554;51.546;6.776;2022-07-29T05:22:34;10.02;;;2.90;;
70183;SDS011;57554;51.546;6.776;2022-07-29T05:25:00;6.63;;;2.70;;
70183;SDS011;57554;51.546;6.776;2022-07-29T05:27:26;7.68;;;2.40;;
70183;SDS011;57554;51.546;6.776;2022-07-29T05:29:51;5.65;;;2.65;;
70183;SDS011;57554;51.546;6.776;2022-07-29T05:32:17;9.27;;;2.78;;
70183;SDS011;57554;51.546;6.776;2022-07-29T05:34:42;9.35;;;2.50;;
70183;SDS011;57554;51.546;6.776;2022-07-29T05:37:08;8.23;;;2.65;;
70183;SDS011;57554;51.546;6.776;2022-07-29T05:39:34;6.43;;;2.50;;
70183;SDS011;57554;51.546;6.776;2022-07-29T05:41:59;6.65;;;2.63;;
70183;SDS011;57554;51.546;6.776;2022-07-29T05:44:25;7.00;;;2.50;;
70183;SDS011;57554;51.546;6.776;2022-07-29T05:46:50;7.10;;;2.90;;
70183;SDS011;57554;51.546;6.776;2022-07-29T05:49:16;6.78;;;2.88;;
70183;SDS011;57554;51.546;6.776;2022-07-29T05:51:42;6.07;;;2.63;;
70183;SDS011;57554;51.546;6.776;2022-07-29T05:54:07;5.63;;;3.10;;
70183;SDS011;57554;51.546;6.776;2022-07-29T05:56:35;6.78;;;2.50;;
70183;SDS011;57554;51.546;6.776;2022-07-29T05:59:01;5.88;;;2.63;;
70183;SDS011;57554;51.546;6.776;2022-07-29T06:01:28;8.43;;;3.15;;
70183;SDS011;57554;51.546;6.776;2022-07-29T06:03:53;7.72;;;3.10;;
70183;SDS011;57554;51.546;6.776;2022-07-29T06:06:19;5.93;;;2.30;;
70183;SDS011;57554;51.546;6.776;2022-07-29T06:08:45;6.03;;;2.53;;
70183;SDS011;57554;51.546;6.776;2022-07-29T06:11:10;8.00;;;2.60;;
70183;SDS011;57554;51.546;6.776;2022-07-29T06:13:36;7.05;;;2.63;;
70183;SDS011;57554;51.546;6.776;2022-07-29T06:16:01;5.85;;;2.45;;
70183;SDS011;57554;51.546;6.776;2022-07-29T06:18:27;5.63;;;2.70;;
70183;SDS011;57554;51.546;6.776;2022-07-29T06:20:53;7.82;;;2.40;;
70183;SDS011;57554;51.546;6.776;2022-07-29T06:23:19;6.80;;;3.00;;
70183;SDS011;57554;51.546;6.776;2022-07-29T06:25:45;9.52;;;2.65;;
70183;SDS011;57554;51.546;6.776;2022-07-29T06:28:11;7.80;;;2.75;;
70183;SDS011;57554;51.546;6.776;2022-07-29T06:30:38;12.55;;;3.40;;
70183;SDS011;57554;51.546;6.776;2022-07-29T06:33:04;8.85;;;2.65;;
70183;SDS011;57554;51.546;6.776;2022-07-29T06:35:30;7.00;;;2.90;;
70183;SDS011;57554;51.546;6.776;2022-07-29T06:37:59;7.32;;;3.03;;
70183;SDS011;57554;51.546;6.776;2022-07-29T06:40:25;6.28;;;2.55;;
70183;SDS011;57554;51.546;6.776;2022-07-29T06:43:10;6.47;;;2.78;;
70183;SDS011;57554;51.546;6.776;2022-07-29T06:45:35;7.20;;;3.33;;
70183;SDS011;57554;51.546;6.776;2022-07-29T06:48:01;6.93;;;2.90;;
70183;SDS011;57554;51.546;6.776;2022-07-29T06:50:27;8.30;;;3.15;;
70183;SDS011;57554;51.546;6.776;2022-07-29T06:52:53;12.88;;;3.50;;
70183;SDS011;57554;51.546;6.776;2022-07-29T06:55:18;8.73;;;2.90;;
70183;SDS011;57554;51.546;6.776;2022-07-29T06:57:44;8.02;;;3.00;;
70183;SDS011;57554;51.546;6.776;2022-07-29T07:00:11;6.88;;;3.20;;
70183;SDS011;57554;51.546;6.776;2022-07-29T07:02:38;9.50;;;3.15;;
70183;SDS011;57554;51.546;6.776;2022-07-29T07:05:03;8.18;;;3.95;;
70183;SDS011;57554;51.546;6.776;2022-07-29T07:07:30;5.63;;;3.10;;
70183;SDS011;57554;51.546;6.776;2022-07-29T07:09:56;9.82;;;3.28;;
70183;SDS011;57554;51.546;6.776;2022-07-29T07:12:21;10.75;;;3.60;;
70183;SDS011;57554;51.546;6.776;2022-07-29T07:14:47;12.68;;;4.07;;
70183;SDS011;57554;51.546;6.776;2022-07-29T07:17:13;10.32;;;3.22;;
70183;SDS011;57554;51.546;6.776;2022-07-29T07:19:38;9.80;;;4.13;;
70183;SDS011;57554;51.546;6.776;2022-07-29T07:22:04;8.95;;;3.10;;
70183;SDS011;57554;51.546;6.776;2022-07-29T07:24:29;12.95;;;3.78;;
70183;SDS011;57554;51.546;6.776;2022-07-29T07:26:55;7.57;;;3.63;;
70183;SDS011;57554;51.546;6.776;2022-07-29T07:29:21;9.75;;;3.78;;
70183;SDS011;57554;51.546;6.776;2022-07-29T07:31:46;8.98;;;3.45;;
70183;SDS011;57554;51.546;6.776;2022-07-29T07:34:12;7.78;;;3.35;;
70183;SDS011;57554;51.546;6.776;2022-07-29T07:36:38;8.27;;;3.63;;
70183;SDS011;57554;51.546;6.776;2022-07-29T07:39:04;7.13;;;3.22;;
70183;SDS011;57554;51.546;6.776;2022-07-29T07:41:30;7.38;;;3.35;;
70183;SDS011;57554;51.546;6.776;2022-07-29T07:43:55;8.18;;;3.10;;
70183;SDS011;57554;51.546;6.776;2022-07-29T07:46:21;11.48;;;3.70;;
70183;SDS011;57554;51.546;6.776;2022-07-29T07:48:47;6.45;;;3.00;;
70183;SDS011;57554;51.546;6.776;2022-07-29T07:51:12;8.00;;;3.50;;
70183;SDS011;57554;51.546;6.776;2022-07-29T07:53:38;8.57;;;3.08;;
70183;SDS011;57554;51.546;6.776;2022-07-29T07:56:03;6.72;;;2.90;;
70183;SDS011;57554;51.546;6.776;2022-07-29T07:58:31;6.45;;;3.33;;
70183;SDS011;57554;51.546;6.776;2022-07-29T08:00:57;9.57;;;3.78;;
70183;SDS011;57554;51.546;6.776;2022-07-29T08:03:23;12.45;;;3.47;;
70183;SDS011;57554;51.546;6.776;2022-07-29T08:05:49;8.27;;;3.75;;
70183;SDS011;57554;51.546;6.776;2022-07-29T08:08:16;8.63;;;3.45;;
70183;SDS011;57554;51.546;6.776;2022-07-29T08:10:42;10.73;;;3.70;;
70183;SDS011;57554;51.546;6.776;2022-07-29T08:13:18;9.10;;;3.78;;
70183;SDS011;57554;51.546;6.776;2022-07-29T08:15:44;7.28;;;3.00;;
70183;SDS011;57554;51.546;6.776;2022-07-29T08:18:11;8.07;;;3.20;;
70183;SDS011;57554;51.546;6.776;2022-07-29T08:20:40;13.60;;;3.72;;
70183;SDS011;57554;51.546;6.776;2022-07-29T08:23:06;7.82;;;3.80;;
70183;SDS011;57554;51.546;6.776;2022-07-29T08:25:36;8.18;;;3.47;;
70183;SDS011;57554;51.546;6.776;2022-07-29T08:28:06;8.48;;;3.10;;
70183;SDS011;57554;51.546;6.776;2022-07-29T08:30:32;8.38;;;3.28;;
70183;SDS011;57554;51.546;6.776;2022-07-29T08:32:58;10.93;;;4.32;;
70183;SDS011;57554;51.546;6.776;2022-07-29T08:35:24;7.78;;;3.67;;
70183;SDS011;57554;51.546;6.776;2022-07-29T08:37:50;7.53;;;3.47;;
70183;SDS011;57554;51.546;6.776;2022-07-29T08:40:17;11.52;;;3.58;;
70183;SDS011;57554;51.546;6.776;2022-07-29T08:42:44;9.00;;;4.05;;
70183;SDS011;57554;51.546;6.776;2022-07-29T08:45:10;8.63;;;4.20;;
70183;SDS011;57554;51.546;6.776;2022-07-29T08:47:36;10.10;;;4.10;;
70183;SDS011;57554;51.546;6.776;2022-07-29T08:50:05;11.20;;;4.25;;
70183;SDS011;57554;51.546;6.776;2022-07-29T08:52:32;9.63;;;3.30;;
70183;SDS011;57554;51.546;6.776;2022-07-29T08:55:01;11.00;;;4.00;;
70183;SDS011;57554;51.546;6.776;2022-07-29T08:57:27;9.63;;;3.78;;
70183;SDS011;57554;51.546;6.776;2022-07-29T08:59:54;11.30;;;4.00;;
70183;SDS011;57554;51.546;6.776;2022-07-29T09:02:20;8.77;;;3.78;;
70183;SDS011;57554;51.546;6.776;2022-07-29T09:04:48;11.65;;;4.68;;
70183;SDS011;57554;51.546;6.776;2022-07-29T09:07:15;9.60;;;3.97;;
70183;SDS011;57554;51.546;6.776;2022-07-29T09:09:41;9.13;;;4.30;;
70183;SDS011;57554;51.546;6.776;2022-07-29T09:12:11;8.15;;;3.85;;
70183;SDS011;57554;51.546;6.776;2022-07-29T09:14:40;11.23;;;4.50;;
70183;SDS011;57554;51.546;6.776;2022-07-29T09:17:06;9.52;;;4.50;;
70183;SDS011;57554;51.546;6.776;2022-07-29T09:19:33;10.38;;;4.05;;
70183;SDS011;57554;51.546;6.776;2022-07-29T09:22:01;8.65;;;4.45;;
70183;SDS011;57554;51.546;6.776;2022-07-29T09:27:00;11.73;;;5.40;;
70183;SDS011;57554;51.546;6.776;2022-07-29T09:29:26;10.15;;;5.05;;
70183;SDS011;57554;51.546;6.776;2022-07-29T09:31:53;10.98;;;4.60;;
70183;SDS011;57554;51.546;6.776;2022-07-29T09:34:24;11.27;;;4.90;;
70183;SDS011;57554;51.546;6.776;2022-07-29T09:36:52;8.30;;;4.63;;
70183;SDS011;57554;51.546;6.776;2022-07-29T09:39:29;13.02;;;4.63;;
70183;SDS011;57554;51.546;6.776;2022-07-29T09:42:10;13.10;;;4.43;;
70183;SDS011;57554;51.546;6.776;2022-07-29T09:44:43;10.07;;;4.18;;
70183;SDS011;57554;51.546;6.776;2022-07-29T09:47:15;9.60;;;4.28;;
70183;SDS011;57554;51.546;6.776;2022-07-29T09:49:52;9.85;;;4.00;;
70183;SDS011;57554;51.546;6.776;2022-07-29T09:52:20;7.90;;;3.97;;
70183;SDS011;57554;51.546;6.776;2022-07-29T09:54:46;11.15;;;4.20;;
70183;SDS011;57554;51.546;6.776;2022-07-29T09:57:25;9.52;;;3.80;;
70183;SDS011;57554;51.546;6.776;2022-07-29T09:59:58;8.13;;;3.80;;
70183;SDS011;57554;51.546;6.776;2022-07-29T10:02:32;10.25;;;4.07;;
70183;SDS011;57554;51.546;6.776;2022-07-29T10:04:59;8.88;;;3.50;;
70183;SDS011;57554;51.546;6.776;2022-07-29T10:07:28;8.23;;;3.33;;
70183;SDS011;57554;51.546;6.776;2022-07-29T10:10:09;7.65;;;3.20;;
70183;SDS011;57554;51.546;6.776;2022-07-29T10:12:35;8.63;;;3.58;;
70183;SDS011;57554;51.546;6.776;2022-07-29T10:15:21;8.02;;;3.38;;
70183;SDS011;57554;51.546;6.776;2022-07-29T10:17:48;9.40;;;3.00;;
70183;SDS011;57554;51.546;6.776;2022-07-29T10:20:15;8.65;;;3.28;;
70183;SDS011;57554;51.546;6.776;2022-07-29T10:22:42;7.93;;;3.33;;
70183;SDS011;57554;51.546;6.776;2022-07-29T10:25:09;7.20;;;3.33;;
70183;SDS011;57554;51.546;6.776;2022-07-29T10:27:35;8.15;;;3.58;;
70183;SDS011;57554;51.546;6.776;2022-07-29T10:30:02;8.23;;;3.08;;
70183;SDS011;57554;51.546;6.776;2022-07-29T10:43:51;9.80;;;2.95;;
70183;SDS011;57554;51.546;6.776;2022-07-29T10:46:23;7.88;;;3.33;;
70183;SDS011;57554;51.546;6.776;2022-07-29T10:52:01;6.75;;;3.35;;
70183;SDS011;57554;51.546;6.776;2022-07-29T10:54:37;7.50;;;3.38;;
70183;SDS011;57554;51.546;6.776;2022-07-29T11:00:25;11.95;;;4.05;;
70183;SDS011;57554;51.546;6.776;2022-07-29T11:05:05;6.95;;;3.30;;
70183;SDS011;57554;51.546;6.776;2022-07-29T11:07:33;7.85;;;3.80;;
70183;SDS011;57554;51.546;6.776;2022-07-29T11:15:04;7.75;;;4.68;;
70183;SDS011;57554;51.546;6.776;2022-07-29T11:25:45;7.90;;;3.90;;
70183;SDS011;57554;51.546;6.776;2022-07-29T11:28:31;8.45;;;3.85;;
70183;SDS011;57554;51.546;6.776;2022-07-29T11:30:57;9.07;;;4.25;;
70183;SDS011;57554;51.546;6.776;2022-07-29T11:33:31;11.07;;;5.90;;
70183;SDS011;57554;51.546;6.776;2022-07-29T11:36:31;10.52;;;3.55;;
70183;SDS011;57554;51.546;6.776;2022-07-29T11:38:49;8.82;;;4.95;;
70183;SDS011;57554;51.546;6.776;2022-07-29T11:41:24;9.90;;;4.68;;
70183;SDS011;57554;51.546;6.776;2022-07-29T11:43:53;10.88;;;4.78;;
70183;SDS011;57554;51.546;6.776;2022-07-29T11:49:23;7.28;;;3.97;;
70183;SDS011;57554;51.546;6.776;2022-07-29T11:51:54;9.20;;;4.13;;
70183;SDS011;57554;51.546;6.776;2022-07-29T11:54:24;8.57;;;4.00;;
70183;SDS011;57554;51.546;6.776;2022-07-29T11:56:51;10.15;;;4.55;;
70183;SDS011;57554;51.546;6.776;2022-07-29T11:59:17;8.50;;;4.35;;
70183;SDS011;57554;51.546;6.776;2022-07-29T12:02:00;8.30;;;4.60;;
70183;SDS011;57554;51.546;6.776;2022-07-29T12:04:25;9.32;;;4.18;;
70183;SDS011;57554;51.546;6.776;2022-07-29T12:06:55;8.68;;;3.55;;
70183;SDS011;57554;51.546;6.776;2022-07-29T12:09:21;10.40;;;3.90;;
70183;SDS011;57554;51.546;6.776;2022-07-29T12:11:48;7.72;;;3.35;;
70183;SDS011;57554;51.546;6.776;2022-07-29T12:14:30;8.32;;;3.40;;
70183;SDS011;57554;51.546;6.776;2022-07-29T12:16:57;8.70;;;3.53;;
70183;SDS011;57554;51.546;6.776;2022-07-29T12:19:24;6.93;;;3.30;;
70183;SDS011;57554;51.546;6.776;2022-07-29T12:21:51;7.55;;;3.53;;
70183;SDS011;57554;51.546;6.776;2022-07-29T12:24:20;7.32;;;3.00;;
70183;SDS011;57554;51.546;6.776;2022-07-29T12:27:04;7.47;;;3.55;;
70183;SDS011;57554;51.546;6.776;2022-07-29T12:29:30;10.02;;;3.60;;
70183;SDS011;57554;51.546;6.776;2022-07-29T12:31:55;8.88;;;3.55;;
70183;SDS011;57554;51.546;6.776;2022-07-29T12:34:23;9.25;;;3.67;;
70183;SDS011;57554;51.546;6.776;2022-07-29T12:36:51;9.27;;;3.88;;
70183;SDS011;57554;51.546;6.776;2022-07-29T12:39:17;9.30;;;3.50;;
70183;SDS011;57554;51.546;6.776;2022-07-29T12:41:43;5.95;;;3.30;;
70183;SDS011;57554;51.546;6.776;2022-07-29T12:44:10;6.32;;;3.00;;
70183;SDS011;57554;51.546;6.776;2022-07-29T12:46:36;8.45;;;3.45;;
70183;SDS011;57554;51.546;6.776;2022-07-29T12:49:02;10.15;;;3.33;;
70183;SDS011;57554;51.546;6.776;2022-07-29T12:51:39;8.15;;;2.95;;
70183;SDS011;57554;51.546;6.776;2022-07-29T12:54:12;8.43;;;3.13;;
70183;SDS011;57554;51.546;6.776;2022-07-29T12:56:43;7.60;;;3.17;;
70183;SDS011;57554;51.546;6.776;2022-07-29T12:59:20;9.43;;;3.20;;
70183;SDS011;57554;51.546;6.776;2022-07-29T13:01:47;9.02;;;3.00;;
70183;SDS011;57554;51.546;6.776;2022-07-29T13:04:28;8.40;;;3.38;;
70183;SDS011;57554;51.546;6.776;2022-07-29T13:06:58;8.75;;;3.40;;
70183;SDS011;57554;51.546;6.776;2022-07-29T13:09:35;12.73;;;3.53;;
70183;SDS011;57554;51.546;6.776;2022-07-29T13:12:13;7.50;;;3.20;;
70183;SDS011;57554;51.546;6.776;2022-07-29T13:14:41;9.07;;;2.80;;
70183;SDS011;57554;51.546;6.776;2022-07-29T13:17:12;8.30;;;2.85;;
70183;SDS011;57554;51.546;6.776;2022-07-29T13:20:03;7.05;;;2.45;;
70183;SDS011;57554;51.546;6.776;2022-07-29T13:22:30;9.40;;;2.53;;
70183;SDS011;57554;51.546;6.776;2022-07-29T13:24:59;5.63;;;2.53;;
70183;SDS011;57554;51.546;6.776;2022-07-29T13:27:27;8.18;;;2.67;;
70183;SDS011;57554;51.546;6.776;2022-07-29T13:29:57;7.85;;;2.80;;
70183;SDS011;57554;51.546;6.776;2022-07-29T13:32:25;5.45;;;2.88;;
70183;SDS011;57554;51.546;6.776;2022-07-29T13:34:52;5.80;;;2.78;;
70183;SDS011;57554;51.546;6.776;2022-07-29T13:37:18;8.07;;;3.30;;
70183;SDS011;57554;51.546;6.776;2022-07-29T13:39:44;12.48;;;3.40;;
70183;SDS011;57554;51.546;6.776;2022-07-29T13:42:10;6.53;;;2.60;;
70183;SDS011;57554;51.546;6.776;2022-07-29T13:44:38;8.40;;;2.80;;
70183;SDS011;57554;51.546;6.776;2022-07-29T13:47:04;10.02;;;3.05;;
70183;SDS011;57554;51.546;6.776;2022-07-29T13:49:31;6.68;;;2.30;;
70183;SDS011;57554;51.546;6.776;2022-07-29T13:51:57;5.55;;;2.20;;
70183;SDS011;57554;51.546;6.776;2022-07-29T13:54:23;5.93;;;2.30;;
70183;SDS011;57554;51.546;6.776;2022-07-29T13:56:50;7.15;;;2.63;;
70183;SDS011;57554;51.546;6.776;2022-07-29T13:59:17;9.07;;;2.50;;
70183;SDS011;57554;51.546;6.776;2022-07-29T14:01:43;8.98;;;2.67;;
70183;SDS011;57554;51.546;6.776;2022-07-29T14:04:09;7.03;;;2.65;;
70183;SDS011;57554;51.546;6.776;2022-07-29T14:06:35;6.57;;;2.25;;
70183;SDS011;57554;51.546;6.776;2022-07-29T14:09:02;7.32;;;2.17;;
70183;SDS011;57554;51.546;6.776;2022-07-29T14:11:31;8.98;;;2.55;;
70183;SDS011;57554;51.546;6.776;2022-07-29T14:13:57;6.45;;;2.70;;
70183;SDS011;57554;51.546;6.776;2022-07-29T14:16:23;8.18;;;2.50;;
70183;SDS011;57554;51.546;6.776;2022-07-29T14:18:48;10.20;;;3.20;;
70183;SDS011;57554;51.546;6.776;2022-07-29T14:21:14;5.90;;;2.67;;
70183;SDS011;57554;51.546;6.776;2022-07-29T14:23:40;9.48;;;2.42;;
70183;SDS011;57554;51.546;6.776;2022-07-29T14:26:05;8.70;;;2.63;;
70183;SDS011;57554;51.546;6.776;2022-07-29T14:28:32;7.63;;;2.50;;
70183;SDS011;57554;51.546;6.776;2022-07-29T14:30:57;9.27;;;2.80;;
70183;SDS011;57554;51.546;6.776;2022-07-29T14:33:23;6.53;;;2.60;;
70183;SDS011;57554;51.546;6.776;2022-07-29T14:35:48;6.18;;;2.67;;
70183;SDS011;57554;51.546;6.776;2022-07-29T14:38:14;6.18;;;2.30;;
70183;SDS011;57554;51.546;6.776;2022-07-29T14:40:40;7.38;;;3.35;;
70183;SDS011;57554;51.546;6.776;2022-07-29T14:43:05;7.05;;;2.90;;
70183;SDS011;57554;51.546;6.776;2022-07-29T14:45:31;7.70;;;2.90;;
70183;SDS011;57554;51.546;6.776;2022-07-29T14:47:57;6.57;;;2.80;;
70183;SDS011;57554;51.546;6.776;2022-07-29T14:50:22;8.88;;;2.95;;
70183;SDS011;57554;51.546;6.776;2022-07-29T14:52:48;7.78;;;2.80;;
70183;SDS011;57554;51.546;6.776;2022-07-29T14:55:14;12.40;;;3.15;;
70183;SDS011;57554;51.546;6.776;2022-07-29T14:57:39;6.72;;;2.50;;
70183;SDS011;57554;51.546;6.776;2022-07-29T15:00:05;8.35;;;2.67;;
70183;SDS011;57554;51.546;6.776;2022-07-29T15:02:32;7.93;;;2.60;;
70183;SDS011;57554;51.546;6.776;2022-07-29T15:04:58;9.20;;;2.92;;
70183;SDS011;57554;51.546;6.776;2022-07-29T15:07:24;10.50;;;2.47;;
70183;SDS011;57554;51.546;6.776;2022-07-29T15:09:49;8.52;;;2.50;;
70183;SDS011;57554;51.546;6.776;2022-07-29T15:12:15;7.97;;;2.45;;
70183;SDS011;57554;51.546;6.776;2022-07-29T15:14:41;7.22;;;2.78;;
70183;SDS011;57554;51.546;6.776;2022-07-29T15:17:06;7.25;;;2.58;;
70183;SDS011;57554;51.546;6.776;2022-07-29T15:19:32;6.78;;;2.28;;
70183;SDS011;57554;51.546;6.776;2022-07-29T15:21:58;6.90;;;2.92;;
70183;SDS011;57554;51.546;6.776;2022-07-29T15:24:23;7.10;;;2.30;;
70183;SDS011;57554;51.546;6.776;2022-07-29T15:26:49;6.47;;;2.33;;
70183;SDS011;57554;51.546;6.776;2022-07-29T15:29:15;6.45;;;2.63;;
70183;SDS011;57554;51.546;6.776;2022-07-29T15:31:41;7.45;;;2.55;;
70183;SDS011;57554;51.546;6.776;2022-07-29T15:34:06;6.63;;;2.50;;
70183;SDS011;57554;51.546;6.776;2022-07-29T15:36:32;7.85;;;2.65;;
70183;SDS011;57554;51.546;6.776;2022-07-29T15:38:58;7.03;;;2.47;;
70183;SDS011;57554;51.546;6.776;2022-07-29T15:41:23;10.18;;;3.20;;